Time;durP1;ratioP1;P1;durP2;ratioP2;P2;SDS_P1;SDS_P2;PMS_P1;PMS_P2;Temp;Humidity;BMP_temperature;BMP_pressure;BME280_temperature;BME280_humidity;BME280_pressure;Samples;Min_cycle;Max_cycle;Signal;HPM_P1;HPM_P2
2021/10/23 00:02:14;;;;;;;9.33;2.10;;;;;;;;;;5053335;28;20234;-72
2021/10/23 00:04:41;;;;;;;10.37;2.13;;;;;;;;;;5053158;28;20287;-72
2021/10/23 00:07:07;;;;;;;7.93;1.57;;;;;;;;;;5055099;28;20834;-72
2021/10/23 00:09:33;;;;;;;11.10;2.23;;;;;;;;;;5054418;28;20747;-72
2021/10/23 00:12:00;;;;;;;6.27;1.53;;;;;;;;;;5053632;28;20285;-72
2021/10/23 00:14:27;;;;;;;7.27;2.07;;;;;;;;;;5053271;28;20240;-72
2021/10/23 00:16:54;;;;;;;11.73;2.30;;;;;;;;;;5054226;28;20207;-72
2021/10/23 00:19:21;;;;;;;6.73;1.73;;;;;;;;;;5052240;28;20268;-72
2021/10/23 00:21:48;;;;;;;11.47;1.70;;;;;;;;;;5057098;28;20292;-72
2021/10/23 00:24:14;;;;;;;11.30;2.00;;;;;;;;;;5056540;28;20223;-72
2021/10/23 00:26:41;;;;;;;5.10;1.63;;;;;;;;;;5057392;28;20210;-72
2021/10/23 00:29:07;;;;;;;14.50;2.43;;;;;;;;;;5056291;28;20229;-72
2021/10/23 00:31:34;;;;;;;11.90;1.87;;;;;;;;;;5058796;28;20268;-72
2021/10/23 00:34:02;;;;;;;8.57;2.10;;;;;;;;;;5057397;28;20226;-72
2021/10/23 00:36:28;;;;;;;13.47;2.00;;;;;;;;;;5057310;28;20685;-73
2021/10/23 00:38:55;;;;;;;12.53;2.13;;;;;;;;;;5057841;28;20467;-72
2021/10/23 00:41:21;;;;;;;10.50;2.30;;;;;;;;;;5057218;28;20827;-72
2021/10/23 00:43:47;;;;;;;12.77;3.03;;;;;;;;;;5058222;28;21273;-72
2021/10/23 00:46:15;;;;;;;9.93;2.00;;;;;;;;;;5057864;28;20261;-72
2021/10/23 00:48:42;;;;;;;11.13;2.37;;;;;;;;;;5057440;28;20278;-72
2021/10/23 00:51:11;;;;;;;9.10;1.97;;;;;;;;;;5058386;28;20261;-72
2021/10/23 00:53:38;;;;;;;11.70;1.93;;;;;;;;;;5058337;28;20713;-72
2021/10/23 00:56:05;;;;;;;8.10;2.00;;;;;;;;;;5057662;28;20210;-72
2021/10/23 00:58:31;;;;;;;9.00;1.93;;;;;;;;;;5058965;28;20218;-72
2021/10/23 01:00:58;;;;;;;13.87;2.17;;;;;;;;;;5056614;28;20227;-72
2021/10/23 01:03:24;;;;;;;12.33;1.70;;;;;;;;;;5058543;28;20691;-72
2021/10/23 01:05:51;;;;;;;10.53;2.30;;;;;;;;;;5055219;28;20239;-72
2021/10/23 01:08:19;;;;;;;9.57;2.20;;;;;;;;;;5057758;28;20231;-72
2021/10/23 01:10:45;;;;;;;8.43;1.70;;;;;;;;;;5057985;28;20641;-72
2021/10/23 01:13:12;;;;;;;7.37;1.93;;;;;;;;;;5056047;28;20217;-72
2021/10/23 01:15:39;;;;;;;10.73;2.20;;;;;;;;;;5056208;28;20267;-72
2021/10/23 01:18:09;;;;;;;10.77;1.80;;;;;;;;;;5057248;28;20225;-72
2021/10/23 01:20:37;;;;;;;10.80;2.60;;;;;;;;;;5056649;28;20584;-72
2021/10/23 01:23:03;;;;;;;15.80;2.57;;;;;;;;;;5057870;28;20231;-72
2021/10/23 01:25:32;;;;;;;11.03;2.23;;;;;;;;;;5056516;28;20641;-72
2021/10/23 01:28:01;;;;;;;10.53;2.30;;;;;;;;;;5056286;28;20199;-72
2021/10/23 01:30:28;;;;;;;11.13;2.87;;;;;;;;;;5056602;28;20290;-72
2021/10/23 01:32:55;;;;;;;8.30;1.87;;;;;;;;;;5056536;28;20264;-72
2021/10/23 01:35:22;;;;;;;12.87;2.27;;;;;;;;;;5057213;28;20227;-72
2021/10/23 01:37:50;;;;;;;13.17;2.40;;;;;;;;;;5054298;28;20223;-72
2021/10/23 01:40:19;;;;;;;14.13;2.57;;;;;;;;;;5057070;28;20628;-72
2021/10/23 01:42:45;;;;;;;16.43;2.67;;;;;;;;;;5056171;28;21354;-72
2021/10/23 01:45:12;;;;;;;10.83;2.43;;;;;;;;;;5056026;28;20260;-72
2021/10/23 01:47:39;;;;;;;14.03;2.67;;;;;;;;;;5057341;28;20206;-72
2021/10/23 01:50:07;;;;;;;9.47;2.90;;;;;;;;;;5055820;28;20564;-72
2021/10/23 01:52:33;;;;;;;7.43;2.47;;;;;;;;;;5056510;28;20268;-72
2021/10/23 01:55:01;;;;;;;10.80;2.43;;;;;;;;;;5055394;28;20238;-72
2021/10/23 01:57:28;;;;;;;10.87;2.43;;;;;;;;;;5056941;28;20216;-72
2021/10/23 01:59:54;;;;;;;13.30;2.93;;;;;;;;;;5057424;28;20234;-72
2021/10/23 02:02:21;;;;;;;11.00;2.47;;;;;;;;;;5057212;28;20206;-72
2021/10/23 02:04:47;;;;;;;7.57;2.47;;;;;;;;;;5056354;28;20313;-72
2021/10/23 02:07:13;;;;;;;9.43;2.33;;;;;;;;;;5056837;28;20631;-72
2021/10/23 02:09:40;;;;;;;9.53;2.03;;;;;;;;;;5055470;28;21214;-72
2021/10/23 02:12:08;;;;;;;7.93;2.23;;;;;;;;;;5055906;28;20218;-72
2021/10/23 02:14:34;;;;;;;7.83;2.30;;;;;;;;;;5054195;28;20226;-72
2021/10/23 02:17:00;;;;;;;13.83;2.90;;;;;;;;;;5056453;28;20223;-72
2021/10/23 02:19:27;;;;;;;9.90;2.43;;;;;;;;;;5054711;28;20223;-72
2021/10/23 02:21:53;;;;;;;10.83;2.40;;;;;;;;;;5055904;28;20221;-72
2021/10/23 02:24:20;;;;;;;13.13;2.13;;;;;;;;;;5056248;28;20230;-72
2021/10/23 02:26:46;;;;;;;12.70;2.63;;;;;;;;;;5054302;28;20210;-72
2021/10/23 02:29:14;;;;;;;9.93;2.50;;;;;;;;;;5054126;28;20272;-72
2021/10/23 02:31:40;;;;;;;13.17;2.67;;;;;;;;;;5057382;28;20223;-72
2021/10/23 02:34:07;;;;;;;11.33;2.40;;;;;;;;;;5056807;28;20235;-72
2021/10/23 02:36:33;;;;;;;9.97;2.70;;;;;;;;;;5056201;28;20206;-72
2021/10/23 02:39:00;;;;;;;16.00;2.53;;;;;;;;;;5057385;28;20227;-72
2021/10/23 02:41:26;;;;;;;9.53;2.57;;;;;;;;;;5054501;28;20263;-72
2021/10/23 02:43:53;;;;;;;12.90;2.50;;;;;;;;;;5054099;28;20284;-72
2021/10/23 02:46:22;;;;;;;10.23;2.50;;;;;;;;;;5055351;28;20214;-72
2021/10/23 02:48:48;;;;;;;8.43;2.50;;;;;;;;;;5052934;28;20230;-72
2021/10/23 02:51:15;;;;;;;12.33;2.23;;;;;;;;;;5054539;28;20207;-72
2021/10/23 02:53:42;;;;;;;10.83;2.33;;;;;;;;;;5053947;28;20689;-72
2021/10/23 02:56:08;;;;;;;7.57;2.00;;;;;;;;;;5057133;28;20206;-72
2021/10/23 02:58:35;;;;;;;10.40;2.57;;;;;;;;;;5055474;28;20740;-72
2021/10/23 03:01:02;;;;;;;8.63;2.47;;;;;;;;;;5054878;28;20206;-72
2021/10/23 03:03:30;;;;;;;7.47;2.27;;;;;;;;;;5054538;28;20292;-72
2021/10/23 03:05:56;;;;;;;11.33;2.67;;;;;;;;;;5055117;28;20823;-71
2021/10/23 03:08:23;;;;;;;9.17;2.90;;;;;;;;;;5053946;28;20238;-72
2021/10/23 03:10:49;;;;;;;12.50;2.77;;;;;;;;;;5054771;28;20236;-72
2021/10/23 03:13:17;;;;;;;10.70;2.50;;;;;;;;;;5053276;28;20207;-72
2021/10/23 03:15:44;;;;;;;11.80;2.90;;;;;;;;;;5055603;28;20645;-72
2021/10/23 03:18:10;;;;;;;8.93;2.60;;;;;;;;;;5055229;28;20214;-72
2021/10/23 03:20:38;;;;;;;9.57;2.40;;;;;;;;;;5053054;28;20233;-72
2021/10/23 03:23:05;;;;;;;10.03;2.57;;;;;;;;;;5052090;28;20242;-72
2021/10/23 03:25:31;;;;;;;9.83;2.53;;;;;;;;;;5054294;28;20260;-72
2021/10/23 03:27:57;;;;;;;9.13;2.17;;;;;;;;;;5053147;28;20211;-72
2021/10/23 03:30:24;;;;;;;7.63;2.30;;;;;;;;;;5053426;28;20256;-72
2021/10/23 03:32:50;;;;;;;9.10;2.90;;;;;;;;;;5053323;28;20215;-72
2021/10/23 03:35:17;;;;;;;11.07;2.57;;;;;;;;;;5054543;28;20235;-72
2021/10/23 03:37:45;;;;;;;9.17;2.57;;;;;;;;;;5053617;28;20280;-72
2021/10/23 03:40:11;;;;;;;13.77;2.90;;;;;;;;;;5053503;28;20234;-72
2021/10/23 03:42:38;;;;;;;12.70;2.30;;;;;;;;;;5053157;28;20306;-72
2021/10/23 03:45:05;;;;;;;9.33;2.50;;;;;;;;;;5055500;28;20207;-72
2021/10/23 03:47:31;;;;;;;9.10;2.17;;;;;;;;;;5055063;28;20277;-72
2021/10/23 03:49:58;;;;;;;6.93;2.13;;;;;;;;;;5051134;28;20246;-73
2021/10/23 03:52:24;;;;;;;8.27;2.40;;;;;;;;;;5054943;28;20261;-72
2021/10/23 03:54:52;;;;;;;9.57;2.70;;;;;;;;;;5055358;28;20713;-72
2021/10/23 03:57:18;;;;;;;7.23;2.23;;;;;;;;;;5052677;28;20215;-73
2021/10/23 03:59:45;;;;;;;12.97;2.43;;;;;;;;;;5055429;28;20246;-72
2021/10/23 04:02:11;;;;;;;11.17;2.90;;;;;;;;;;5054940;28;20206;-72
2021/10/23 04:04:37;;;;;;;8.33;2.30;;;;;;;;;;5055611;28;20239;-72
2021/10/23 04:07:04;;;;;;;10.20;2.97;;;;;;;;;;5056003;28;20222;-72
2021/10/23 04:09:30;;;;;;;11.30;2.60;;;;;;;;;;5054481;28;20273;-72
2021/10/23 04:11:58;;;;;;;6.77;1.97;;;;;;;;;;5054016;28;20215;-72
2021/10/23 04:14:25;;;;;;;7.60;1.90;;;;;;;;;;5054791;28;20234;-72
2021/10/23 04:16:51;;;;;;;4.87;1.90;;;;;;;;;;5054596;28;20218;-72
2021/10/23 04:19:17;;;;;;;6.90;1.77;;;;;;;;;;5052161;28;20573;-73
2021/10/23 04:21:44;;;;;;;8.00;2.00;;;;;;;;;;5054985;28;20220;-72
2021/10/23 04:24:11;;;;;;;14.00;2.27;;;;;;;;;;5054227;28;20232;-72
2021/10/23 04:26:38;;;;;;;11.40;1.70;;;;;;;;;;5053919;28;20291;-72
2021/10/23 04:29:06;;;;;;;11.10;2.43;;;;;;;;;;5052945;28;20295;-72
2021/10/23 04:31:33;;;;;;;8.50;2.20;;;;;;;;;;5054481;28;20922;-74
2021/10/23 04:34:00;;;;;;;5.87;1.73;;;;;;;;;;5052478;28;20222;-75
2021/10/23 04:36:27;;;;;;;8.00;1.50;;;;;;;;;;5053916;28;20260;-75
2021/10/23 04:38:53;;;;;;;5.93;1.47;;;;;;;;;;5053268;28;20234;-75
2021/10/23 04:41:20;;;;;;;10.37;1.90;;;;;;;;;;5052291;28;20222;-75
2021/10/23 04:43:46;;;;;;;6.50;1.50;;;;;;;;;;5051504;28;20227;-75
2021/10/23 04:46:14;;;;;;;5.50;1.50;;;;;;;;;;5054333;28;20212;-75
2021/10/23 04:48:40;;;;;;;6.23;1.70;;;;;;;;;;5054060;28;20226;-75
2021/10/23 04:51:07;;;;;;;6.73;1.97;;;;;;;;;;5054629;28;20223;-75
2021/10/23 04:53:33;;;;;;;6.97;1.60;;;;;;;;;;5054002;28;20284;-75
2021/10/23 04:55:59;;;;;;;6.97;1.90;;;;;;;;;;5052266;28;20219;-75
2021/10/23 04:58:26;;;;;;;6.27;1.43;;;;;;;;;;5054661;28;20683;-75
2021/10/23 05:00:52;;;;;;;9.40;1.70;;;;;;;;;;5054464;28;20256;-75
2021/10/23 05:03:20;;;;;;;9.07;1.80;;;;;;;;;;5054224;28;20207;-75
2021/10/23 05:05:46;;;;;;;4.60;1.70;;;;;;;;;;5051299;28;20238;-75
2021/10/23 05:08:13;;;;;;;7.03;1.80;;;;;;;;;;5058002;28;20253;-75
2021/10/23 05:10:40;;;;;;;7.87;2.00;;;;;;;;;;5056470;28;20550;-75
2021/10/23 05:13:06;;;;;;;7.43;1.50;;;;;;;;;;5057484;28;20221;-75
2021/10/23 05:15:33;;;;;;;4.47;1.93;;;;;;;;;;5054110;28;20247;-75
2021/10/23 05:17:59;;;;;;;10.40;2.13;;;;;;;;;;5054297;28;20226;-75
2021/10/23 05:20:27;;;;;;;12.93;1.90;;;;;;;;;;5057016;28;20234;-75
2021/10/23 05:22:54;;;;;;;8.57;2.00;;;;;;;;;;5056845;28;20217;-75
2021/10/23 05:25:20;;;;;;;5.27;1.43;;;;;;;;;;5055771;28;20230;-75
2021/10/23 05:27:47;;;;;;;4.93;1.40;;;;;;;;;;5056826;28;20701;-75
2021/10/23 05:30:13;;;;;;;8.20;1.57;;;;;;;;;;5056152;28;20267;-75
2021/10/23 05:32:40;;;;;;;8.83;1.80;;;;;;;;;;5057098;28;20244;-75
2021/10/23 05:35:07;;;;;;;8.40;1.87;;;;;;;;;;5054244;28;20283;-75
2021/10/23 05:37:35;;;;;;;8.17;1.50;;;;;;;;;;5056469;28;21226;-75
2021/10/23 05:40:01;;;;;;;7.27;1.50;;;;;;;;;;5054750;28;20238;-75
2021/10/23 05:42:28;;;;;;;6.40;1.90;;;;;;;;;;5056878;28;20206;-76
2021/10/23 05:44:54;;;;;;;6.47;1.80;;;;;;;;;;5055817;28;20312;-76
2021/10/23 05:47:20;;;;;;;9.37;2.43;;;;;;;;;;5056327;28;20214;-77
2021/10/23 05:49:47;;;;;;;9.00;1.70;;;;;;;;;;5056080;28;20234;-75
2021/10/23 05:52:13;;;;;;;8.93;2.03;;;;;;;;;;5055964;28;20222;-74
2021/10/23 05:54:41;;;;;;;7.40;1.90;;;;;;;;;;5054750;28;20219;-74
2021/10/23 05:57:09;;;;;;;7.60;1.83;;;;;;;;;;5054649;28;20256;-75
2021/10/23 05:59:40;;;;;;;7.20;2.10;;;;;;;;;;5054558;28;20218;-75
2021/10/23 06:02:21;;;;;;;9.27;2.10;;;;;;;;;;5055607;28;20241;-75
2021/10/23 06:04:48;;;;;;;6.33;1.87;;;;;;;;;;5054842;28;20684;-75
2021/10/23 06:07:15;;;;;;;7.73;1.97;;;;;;;;;;5054123;28;20213;-75
2021/10/23 06:09:43;;;;;;;11.67;2.27;;;;;;;;;;5054625;28;20287;-75
2021/10/23 06:12:09;;;;;;;6.47;1.60;;;;;;;;;;5054820;28;20206;-76
2021/10/23 06:14:36;;;;;;;11.17;2.00;;;;;;;;;;5054730;28;20234;-77
2021/10/23 06:17:03;;;;;;;7.07;1.60;;;;;;;;;;5051419;28;20202;-77
2021/10/23 06:19:29;;;;;;;6.83;2.03;;;;;;;;;;5054764;28;20341;-77
2021/10/23 06:21:56;;;;;;;10.63;1.97;;;;;;;;;;5053106;28;20275;-75
2021/10/23 06:24:22;;;;;;;8.20;2.17;;;;;;;;;;5051709;28;20287;-75
2021/10/23 06:26:50;;;;;;;8.80;2.87;;;;;;;;;;5053054;28;20662;-74
2021/10/23 06:29:16;;;;;;;9.47;2.50;;;;;;;;;;5052754;28;20198;-75
2021/10/23 06:31:43;;;;;;;8.77;2.50;;;;;;;;;;5053529;28;20829;-75
2021/10/23 06:34:09;;;;;;;10.53;1.70;;;;;;;;;;5051649;28;20241;-74
2021/10/23 06:36:36;;;;;;;10.07;2.20;;;;;;;;;;5054392;28;20242;-75
2021/10/23 06:39:02;;;;;;;7.93;2.07;;;;;;;;;;5053493;28;20605;-76
2021/10/23 06:41:30;;;;;;;7.37;2.00;;;;;;;;;;5053000;28;20207;-74
2021/10/23 06:43:57;;;;;;;6.60;2.00;;;;;;;;;;5052965;28;20229;-75
2021/10/23 06:46:24;;;;;;;13.03;1.93;;;;;;;;;;5053296;28;20219;-75
2021/10/23 06:48:50;;;;;;;6.37;1.50;;;;;;;;;;5054508;28;20235;-74
2021/10/23 06:51:17;;;;;;;10.00;2.20;;;;;;;;;;5052056;28;20217;-75
2021/10/23 06:53:43;;;;;;;7.50;1.80;;;;;;;;;;5052035;28;20231;-74
2021/10/23 06:56:10;;;;;;;7.47;1.97;;;;;;;;;;5052677;28;20265;-74
2021/10/23 06:58:36;;;;;;;6.77;1.33;;;;;;;;;;5052366;28;20220;-74
2021/10/23 07:01:05;;;;;;;6.50;1.80;;;;;;;;;;5051693;28;20226;-74
2021/10/23 07:03:31;;;;;;;6.40;1.97;;;;;;;;;;5053840;28;20234;-74
2021/10/23 07:05:58;;;;;;;4.37;1.40;;;;;;;;;;5051746;28;20242;-74
2021/10/23 07:08:24;;;;;;;7.03;1.70;;;;;;;;;;5051718;28;20235;-73
2021/10/23 07:10:50;;;;;;;8.40;1.70;;;;;;;;;;5048629;28;20283;-74
2021/10/23 07:13:17;;;;;;;7.07;1.73;;;;;;;;;;5051792;28;20217;-74
2021/10/23 07:15:44;;;;;;;8.07;1.67;;;;;;;;;;5050153;28;20215;-73
2021/10/23 07:18:11;;;;;;;8.57;1.77;;;;;;;;;;5050869;28;20664;-74
2021/10/23 07:20:38;;;;;;;6.87;1.70;;;;;;;;;;5052206;28;20224;-74
2021/10/23 07:23:05;;;;;;;10.90;2.20;;;;;;;;;;5052220;28;20612;-76
2021/10/23 07:25:33;;;;;;;10.47;2.10;;;;;;;;;;5051603;28;20218;-74
2021/10/23 07:28:00;;;;;;;9.30;3.10;;;;;;;;;;5052929;28;20218;-75
2021/10/23 07:30:26;;;;;;;13.07;4.17;;;;;;;;;;5050252;28;20217;-74
2021/10/23 07:32:53;;;;;;;8.60;2.50;;;;;;;;;;5049884;28;20219;-74
2021/10/23 07:35:20;;;;;;;9.03;2.13;;;;;;;;;;5052221;28;20227;-74
2021/10/23 07:37:47;;;;;;;5.23;1.63;;;;;;;;;;5051931;28;20223;-74
2021/10/23 07:40:15;;;;;;;11.37;2.00;;;;;;;;;;5052940;28;20228;-76
2021/10/23 07:42:42;;;;;;;6.60;1.73;;;;;;;;;;5054995;28;20222;-74
2021/10/23 07:45:11;;;;;;;7.60;2.07;;;;;;;;;;5051892;28;20265;-74
2021/10/23 07:47:38;;;;;;;5.90;1.63;;;;;;;;;;5048362;28;20211;-74
2021/10/23 07:50:06;;;;;;;8.10;1.87;;;;;;;;;;5049696;28;20988;-74
2021/10/23 07:52:34;;;;;;;8.50;1.77;;;;;;;;;;5050853;28;21118;-74
2021/10/23 07:55:01;;;;;;;4.90;1.90;;;;;;;;;;5050424;28;20651;-74
2021/10/23 07:57:29;;;;;;;9.47;2.03;;;;;;;;;;5050316;28;20297;-74
2021/10/23 07:59:55;;;;;;;9.13;1.73;;;;;;;;;;5051555;28;20692;-74
2021/10/23 08:02:22;;;;;;;5.67;1.73;;;;;;;;;;5052941;28;20218;-74
2021/10/23 08:04:48;;;;;;;9.33;1.80;;;;;;;;;;5051691;28;20233;-73
2021/10/23 08:07:14;;;;;;;12.10;2.10;;;;;;;;;;5051131;28;20744;-74
2021/10/23 08:09:42;;;;;;;4.90;1.87;;;;;;;;;;5051983;28;20236;-74
2021/10/23 08:12:09;;;;;;;7.07;1.83;;;;;;;;;;5049805;28;20635;-74
2021/10/23 08:14:36;;;;;;;5.13;2.07;;;;;;;;;;5050548;28;20329;-76
2021/10/23 08:17:03;;;;;;;7.53;2.60;;;;;;;;;;5053489;28;20226;-73
2021/10/23 08:19:30;;;;;;;6.43;2.40;;;;;;;;;;5049795;28;20232;-73
2021/10/23 08:21:59;;;;;;;12.03;3.00;;;;;;;;;;5050505;28;20220;-73
2021/10/23 08:24:25;;;;;;;6.03;2.30;;;;;;;;;;5050033;28;20240;-73
2021/10/23 08:26:53;;;;;;;6.90;2.30;;;;;;;;;;5050817;28;20211;-73
2021/10/23 08:29:19;;;;;;;8.53;2.60;;;;;;;;;;5052159;28;20530;-72
2021/10/23 08:31:47;;;;;;;6.17;3.00;;;;;;;;;;5052110;28;20277;-73
2021/10/23 08:34:13;;;;;;;6.33;3.40;;;;;;;;;;5050491;28;20310;-73
2021/10/23 08:36:40;;;;;;;10.03;2.87;;;;;;;;;;5052467;28;20209;-73
2021/10/23 08:39:07;;;;;;;7.83;2.13;;;;;;;;;;5051118;28;20322;-73
2021/10/23 08:41:34;;;;;;;8.70;2.63;;;;;;;;;;5052636;28;20220;-73
2021/10/23 08:44:04;;;;;;;6.60;2.03;;;;;;;;;;5055292;28;20215;-73
2021/10/23 08:46:35;;;;;;;6.60;2.37;;;;;;;;;;5054268;28;20233;-74
2021/10/23 08:49:02;;;;;;;8.17;2.53;;;;;;;;;;5054858;28;20542;-73
2021/10/23 08:51:31;;;;;;;6.93;2.20;;;;;;;;;;5056036;28;20259;-73
2021/10/23 08:53:58;;;;;;;8.27;2.00;;;;;;;;;;5055309;28;20235;-73
2021/10/23 08:56:24;;;;;;;7.47;1.97;;;;;;;;;;5055249;28;20217;-74
2021/10/23 08:58:51;;;;;;;5.93;2.00;;;;;;;;;;5054125;28;20270;-73
2021/10/23 09:01:18;;;;;;;6.67;1.80;;;;;;;;;;5055120;28;20686;-74
2021/10/23 09:03:46;;;;;;;8.07;2.07;;;;;;;;;;5054182;28;20240;-73
2021/10/23 09:06:15;;;;;;;5.93;2.00;;;;;;;;;;5055115;28;20329;-74
2021/10/23 09:09:00;;;;;;;9.93;2.27;;;;;;;;;;5053828;28;20229;-73
2021/10/23 09:11:36;;;;;;;7.37;1.97;;;;;;;;;;5055907;28;20210;-74
2021/10/23 09:14:22;;;;;;;7.30;2.13;;;;;;;;;;5054202;28;20293;-73
2021/10/23 09:17:00;;;;;;;4.53;1.80;;;;;;;;;;5053311;28;20226;-73
2021/10/23 09:19:35;;;;;;;3.90;1.77;;;;;;;;;;5053812;28;20229;-73
2021/10/23 09:22:04;;;;;;;8.23;1.90;;;;;;;;;;5053821;28;20765;-73
2021/10/23 09:24:30;;;;;;;6.20;1.97;;;;;;;;;;5056541;28;20275;-73
2021/10/23 09:26:56;;;;;;;7.27;1.90;;;;;;;;;;5053989;28;20221;-73
2021/10/23 09:29:24;;;;;;;6.23;1.60;;;;;;;;;;5054195;28;20221;-73
2021/10/23 09:31:52;;;;;;;6.73;1.80;;;;;;;;;;5054882;28;20270;-73
2021/10/23 09:34:20;;;;;;;5.27;1.63;;;;;;;;;;5055743;28;20283;-73
2021/10/23 09:36:49;;;;;;;7.67;1.97;;;;;;;;;;5053286;28;20210;-73
2021/10/23 09:39:27;;;;;;;7.47;1.93;;;;;;;;;;5053111;28;20237;-73
2021/10/23 09:42:18;;;;;;;5.50;1.70;;;;;;;;;;5053316;28;20374;-73
2021/10/23 09:45:02;;;;;;;9.50;1.70;;;;;;;;;;5030735;28;20259;-73
2021/10/23 09:47:31;;;;;;;5.70;2.13;;;;;;;;;;5054656;28;20263;-73
2021/10/23 09:50:19;;;;;;;6.43;2.43;;;;;;;;;;5050493;28;20630;-73
2021/10/23 09:53:03;;;;;;;8.00;2.30;;;;;;;;;;5049814;28;20282;-72
2021/10/23 09:55:31;;;;;;;5.60;1.87;;;;;;;;;;5055210;28;20652;-74
2021/10/23 09:58:14;;;;;;;9.03;1.97;;;;;;;;;;5054926;28;20214;-75
2021/10/23 10:00:42;;;;;;;6.33;2.10;;;;;;;;;;5051436;28;20225;-75
2021/10/23 10:03:11;;;;;;;4.27;2.03;;;;;;;;;;5052788;28;20214;-75
2021/10/23 10:05:38;;;;;;;7.07;2.33;;;;;;;;;;5052801;28;20838;-74
2021/10/23 10:08:10;;;;;;;8.87;2.33;;;;;;;;;;5054137;28;20311;-75
2021/10/23 10:10:41;;;;;;;6.87;2.07;;;;;;;;;;5053260;28;20653;-75
2021/10/23 10:13:09;;;;;;;7.00;2.67;;;;;;;;;;5051704;28;20210;-75
2021/10/23 10:15:36;;;;;;;5.97;2.53;;;;;;;;;;5054145;28;20706;-75
2021/10/23 10:18:04;;;;;;;5.33;1.80;;;;;;;;;;5053965;28;20229;-75
2021/10/23 10:20:34;;;;;;;5.33;2.23;;;;;;;;;;5054089;28;20227;-75
2021/10/23 10:23:00;;;;;;;9.47;2.67;;;;;;;;;;5051426;28;20228;-74
2021/10/23 10:25:27;;;;;;;6.53;2.27;;;;;;;;;;5054064;28;20552;-75
2021/10/23 10:27:54;;;;;;;6.90;2.40;;;;;;;;;;5051749;28;20218;-75
2021/10/23 10:30:24;;;;;;;7.53;2.20;;;;;;;;;;5053131;28;20211;-75
2021/10/23 10:32:51;;;;;;;9.07;2.13;;;;;;;;;;5052209;28;20250;-75
2021/10/23 10:35:55;;;;;;;11.80;3.30;;;;;;;;;;5053681;28;20214;-75
2021/10/23 10:38:41;;;;;;;8.50;2.40;;;;;;;;;;5055025;28;20229;-75
2021/10/23 10:44:16;;;;;;;8.50;2.90;;;;;;;;;;5026298;28;20344;-75
2021/10/23 10:47:04;;;;;;;8.40;3.10;;;;;;;;;;5051836;28;20724;-75
2021/10/23 10:49:56;;;;;;;11.37;3.77;;;;;;;;;;5054618;28;20734;-75
2021/10/23 10:52:54;;;;;;;9.90;3.33;;;;;;;;;;5053532;28;20221;-74
2021/10/23 10:55:22;;;;;;;7.53;3.10;;;;;;;;;;5052944;28;20213;-75
2021/10/23 10:58:05;;;;;;;8.97;3.27;;;;;;;;;;5052381;28;20288;-75
2021/10/23 11:01:08;;;;;;;9.17;3.03;;;;;;;;;;5054622;28;20210;-76
2021/10/23 11:03:36;;;;;;;6.93;3.13;;;;;;;;;;5050967;28;20694;-75
2021/10/23 11:06:37;;;;;;;9.17;3.30;;;;;;;;;;5053632;28;20244;-75
2021/10/23 11:09:30;;;;;;;10.60;3.33;;;;;;;;;;5012652;28;20347;-74
2021/10/23 11:12:18;;;;;;;6.50;3.00;;;;;;;;;;5052453;28;20238;-73
2021/10/23 11:14:45;;;;;;;8.27;3.50;;;;;;;;;;5052861;28;20236;-73
2021/10/23 11:17:19;;;;;;;5.83;3.47;;;;;;;;;;5053024;28;20214;-73
2021/10/23 11:19:59;;;;;;;8.10;3.37;;;;;;;;;;5052238;28;20313;-73
2021/10/23 11:22:28;;;;;;;4.77;2.87;;;;;;;;;;5052059;28;20343;-73
2021/10/23 11:25:00;;;;;;;10.40;4.07;;;;;;;;;;5050419;28;20272;-73
2021/10/23 11:27:35;;;;;;;9.70;3.77;;;;;;;;;;5053004;28;20230;-73
2021/10/23 11:30:08;;;;;;;9.20;3.93;;;;;;;;;;5052674;28;20208;-73
2021/10/23 11:32:35;;;;;;;11.37;3.87;;;;;;;;;;5051599;28;20211;-73
2021/10/23 11:35:01;;;;;;;11.27;3.93;;;;;;;;;;5056298;28;20242;-73
2021/10/23 11:37:28;;;;;;;8.23;4.20;;;;;;;;;;5056502;28;20206;-73
2021/10/23 11:39:58;;;;;;;9.50;4.07;;;;;;;;;;5051465;28;20232;-73
2021/10/23 11:42:26;;;;;;;7.63;4.50;;;;;;;;;;5052263;28;21178;-73
2021/10/23 11:44:55;;;;;;;9.53;4.13;;;;;;;;;;5051872;28;20221;-73
2021/10/23 11:47:26;;;;;;;8.13;4.40;;;;;;;;;;5050889;28;20231;-73
2021/10/23 11:49:54;;;;;;;7.63;4.50;;;;;;;;;;5051443;28;20229;-73
2021/10/23 11:52:24;;;;;;;9.20;4.67;;;;;;;;;;5052479;28;20209;-73
2021/10/23 11:54:51;;;;;;;8.40;4.40;;;;;;;;;;5052632;28;20303;-73
2021/10/23 11:57:31;;;;;;;10.23;4.40;;;;;;;;;;5051991;28;20222;-73
2021/10/23 11:59:59;;;;;;;6.57;4.00;;;;;;;;;;5051429;28;20366;-73
2021/10/23 12:02:40;;;;;;;8.97;4.70;;;;;;;;;;5052040;28;20894;-73
2021/10/23 12:05:23;;;;;;;9.87;4.60;;;;;;;;;;5051987;28;20230;-73
2021/10/23 12:08:12;;;;;;;8.67;4.33;;;;;;;;;;5050517;28;20210;-73
2021/10/23 12:10:59;;;;;;;7.47;4.50;;;;;;;;;;5051798;28;20732;-73
2021/10/23 12:13:26;;;;;;;10.30;4.80;;;;;;;;;;5051395;28;20659;-73
2021/10/23 12:16:02;;;;;;;8.43;5.60;;;;;;;;;;5053143;28;20224;-72
2021/10/23 12:18:31;;;;;;;7.93;4.83;;;;;;;;;;5059193;28;20656;-74
2021/10/23 12:21:09;;;;;;;9.53;5.00;;;;;;;;;;5057915;28;20210;-73
2021/10/23 12:23:47;;;;;;;11.60;5.37;;;;;;;;;;5056506;28;20701;-74
2021/10/23 12:26:16;;;;;;;11.33;5.40;;;;;;;;;;5054601;28;20287;-73
2021/10/23 12:28:59;;;;;;;12.17;5.90;;;;;;;;;;5056558;28;20700;-73
2021/10/23 12:31:29;;;;;;;9.73;5.50;;;;;;;;;;5057782;28;20244;-72
2021/10/23 12:34:00;;;;;;;13.70;6.83;;;;;;;;;;5053294;28;20226;-73
2021/10/23 12:36:27;;;;;;;9.47;6.23;;;;;;;;;;5053569;28;20220;-73
2021/10/23 12:38:54;;;;;;;9.50;6.27;;;;;;;;;;5054576;28;20222;-73
2021/10/23 12:41:20;;;;;;;12.03;6.73;;;;;;;;;;5056670;28;20221;-73
2021/10/23 12:43:47;;;;;;;9.43;6.40;;;;;;;;;;5056198;28;20236;-73
2021/10/23 12:46:14;;;;;;;10.30;6.50;;;;;;;;;;5055243;28;20724;-73
2021/10/23 12:48:42;;;;;;;12.27;6.17;;;;;;;;;;5055314;28;20237;-73
2021/10/23 12:51:09;;;;;;;15.23;6.37;;;;;;;;;;5054034;28;20614;-73
2021/10/23 12:53:35;;;;;;;11.37;6.87;;;;;;;;;;5055971;28;20225;-73
2021/10/23 12:56:01;;;;;;;14.63;7.30;;;;;;;;;;5054787;28;20214;-73
2021/10/23 12:58:28;;;;;;;11.80;6.50;;;;;;;;;;5056388;28;20581;-73
2021/10/23 13:00:54;;;;;;;11.20;6.27;;;;;;;;;;5054874;28;20209;-73
2021/10/23 13:03:21;;;;;;;13.67;6.43;;;;;;;;;;5057221;28;20677;-73
2021/10/23 13:05:49;;;;;;;13.37;6.70;;;;;;;;;;5051954;28;20319;-73
2021/10/23 13:08:15;;;;;;;12.90;6.70;;;;;;;;;;5054709;28;20288;-73
2021/10/23 13:10:43;;;;;;;11.27;6.10;;;;;;;;;;5053512;28;20279;-72
2021/10/23 13:13:09;;;;;;;8.20;5.60;;;;;;;;;;5055189;28;20228;-72
2021/10/23 13:15:36;;;;;;;9.27;5.20;;;;;;;;;;5053896;28;20292;-72
2021/10/23 13:18:02;;;;;;;12.50;6.20;;;;;;;;;;5054822;28;20622;-75
2021/10/23 13:20:29;;;;;;;13.10;6.50;;;;;;;;;;5055833;28;20332;-75
2021/10/23 13:22:57;;;;;;;10.60;6.20;;;;;;;;;;5053873;28;20605;-72
2021/10/23 13:25:23;;;;;;;9.97;5.97;;;;;;;;;;5053476;28;20205;-72
2021/10/23 13:27:50;;;;;;;9.87;6.00;;;;;;;;;;5053085;28;20617;-72
2021/10/23 13:30:16;;;;;;;9.83;6.30;;;;;;;;;;5053027;28;20268;-72
2021/10/23 13:32:43;;;;;;;9.93;6.00;;;;;;;;;;5053685;28;20210;-75
2021/10/23 13:35:10;;;;;;;10.27;6.37;;;;;;;;;;5055192;28;20703;-75
2021/10/23 13:37:36;;;;;;;10.50;6.00;;;;;;;;;;5052362;28;20598;-73
2021/10/23 13:40:06;;;;;;;9.93;6.60;;;;;;;;;;5055958;28;20227;-72
2021/10/23 13:42:32;;;;;;;13.50;7.13;;;;;;;;;;5053375;28;20303;-73
2021/10/23 13:44:58;;;;;;;10.30;7.77;;;;;;;;;;5055594;28;20214;-73
2021/10/23 13:47:25;;;;;;;11.57;8.20;;;;;;;;;;5054658;28;20233;-72
2021/10/23 13:49:52;;;;;;;12.93;8.33;;;;;;;;;;5053040;28;20234;-73
2021/10/23 13:52:18;;;;;;;13.50;8.07;;;;;;;;;;5053886;28;20218;-72
2021/10/23 13:54:45;;;;;;;13.40;7.37;;;;;;;;;;5052257;28;20229;-72
2021/10/23 13:57:12;;;;;;;10.57;8.93;;;;;;;;;;5053832;28;20838;-72
2021/10/23 13:59:39;;;;;;;13.40;8.83;;;;;;;;;;5052772;28;20210;-72
2021/10/23 14:02:06;;;;;;;9.17;7.97;;;;;;;;;;5054983;28;20691;-75
2021/10/23 14:04:32;;;;;;;14.57;8.67;;;;;;;;;;5054246;28;20234;-74
2021/10/23 14:06:59;;;;;;;12.67;9.00;;;;;;;;;;5052906;28;20320;-75
2021/10/23 14:09:25;;;;;;;10.83;8.07;;;;;;;;;;5053354;28;21046;-72
2021/10/23 14:11:51;;;;;;;11.07;8.23;;;;;;;;;;5052730;28;20213;-72
2021/10/23 14:14:19;;;;;;;14.90;9.13;;;;;;;;;;5054304;28;20781;-71
2021/10/23 14:16:46;;;;;;;13.53;9.17;;;;;;;;;;5052308;28;20279;-72
2021/10/23 14:19:12;;;;;;;11.80;8.93;;;;;;;;;;5054531;28;20514;-75
2021/10/23 14:21:39;;;;;;;17.40;9.37;;;;;;;;;;5053579;28;20222;-74
2021/10/23 14:24:06;;;;;;;12.10;9.27;;;;;;;;;;5054952;28;20323;-74
2021/10/23 14:26:34;;;;;;;14.07;9.13;;;;;;;;;;5054174;28;20237;-74
2021/10/23 14:29:00;;;;;;;16.97;9.97;;;;;;;;;;5053731;28;20857;-74
2021/10/23 14:31:29;;;;;;;17.60;10.07;;;;;;;;;;5052553;28;20210;-74
2021/10/23 14:33:55;;;;;;;12.73;9.97;;;;;;;;;;5050978;28;20222;-72
2021/10/23 14:36:23;;;;;;;13.10;9.43;;;;;;;;;;5053972;28;20266;-72
2021/10/23 14:38:50;;;;;;;12.80;9.57;;;;;;;;;;5053202;28;20240;-72
2021/10/23 14:41:16;;;;;;;12.90;9.20;;;;;;;;;;5053368;28;20619;-72
2021/10/23 14:43:43;;;;;;;13.90;9.40;;;;;;;;;;5053888;28;20210;-72
2021/10/23 14:46:10;;;;;;;12.97;9.77;;;;;;;;;;5051875;28;20606;-72
2021/10/23 14:48:38;;;;;;;13.03;9.43;;;;;;;;;;5053417;28;20263;-72
2021/10/23 14:51:06;;;;;;;21.30;10.80;;;;;;;;;;5053421;28;20218;-72